sensor_id;sensor_type;location;lat;lon;timestamp;P1;durP1;ratioP1;P2;durP2;ratioP2
31284;SDS011;56605;51.516;6.742;2023-04-03T00:00:44;18.57;;;10.20;;
31284;SDS011;56605;51.516;6.742;2023-04-03T00:03:09;18.87;;;10.60;;
31284;SDS011;56605;51.516;6.742;2023-04-03T00:05:34;17.67;;;10.90;;
31284;SDS011;56605;51.516;6.742;2023-04-03T00:08:00;20.73;;;10.30;;
31284;SDS011;56605;51.516;6.742;2023-04-03T00:10:27;20.73;;;10.77;;
31284;SDS011;56605;51.516;6.742;2023-04-03T00:12:52;17.83;;;10.07;;
31284;SDS011;56605;51.516;6.742;2023-04-03T00:15:17;19.70;;;10.57;;
31284;SDS011;56605;51.516;6.742;2023-04-03T00:17:43;16.93;;;10.57;;
31284;SDS011;56605;51.516;6.742;2023-04-03T00:20:08;17.50;;;9.87;;
31284;SDS011;56605;51.516;6.742;2023-04-03T00:22:34;20.23;;;10.20;;
31284;SDS011;56605;51.516;6.742;2023-04-03T00:24:59;14.43;;;9.70;;
31284;SDS011;56605;51.516;6.742;2023-04-03T00:27:25;16.13;;;9.27;;
31284;SDS011;56605;51.516;6.742;2023-04-03T00:29:50;15.23;;;8.93;;
31284;SDS011;56605;51.516;6.742;2023-04-03T00:32:15;16.37;;;9.37;;
31284;SDS011;56605;51.516;6.742;2023-04-03T00:34:41;15.47;;;8.43;;
31284;SDS011;56605;51.516;6.742;2023-04-03T00:37:06;15.63;;;9.03;;
31284;SDS011;56605;51.516;6.742;2023-04-03T00:39:31;16.50;;;9.03;;
31284;SDS011;56605;51.516;6.742;2023-04-03T00:41:57;12.40;;;7.90;;
31284;SDS011;56605;51.516;6.742;2023-04-03T00:47:11;16.97;;;9.57;;
31284;SDS011;56605;51.516;6.742;2023-04-03T00:49:38;16.27;;;8.07;;
31284;SDS011;56605;51.516;6.742;2023-04-03T00:52:09;14.93;;;8.30;;
31284;SDS011;56605;51.516;6.742;2023-04-03T00:54:38;15.13;;;9.13;;
31284;SDS011;56605;51.516;6.742;2023-04-03T00:57:06;14.40;;;8.43;;
31284;SDS011;56605;51.516;6.742;2023-04-03T00:59:33;12.70;;;8.20;;
31284;SDS011;56605;51.516;6.742;2023-04-03T01:02:01;12.67;;;7.47;;
31284;SDS011;56605;51.516;6.742;2023-04-03T01:07:01;13.70;;;8.60;;
31284;SDS011;56605;51.516;6.742;2023-04-03T01:09:31;13.83;;;8.23;;
31284;SDS011;56605;51.516;6.742;2023-04-03T01:12:16;12.37;;;7.40;;
31284;SDS011;56605;51.516;6.742;2023-04-03T01:14:49;13.00;;;7.47;;
31284;SDS011;56605;51.516;6.742;2023-04-03T01:17:39;13.33;;;8.13;;
31284;SDS011;56605;51.516;6.742;2023-04-03T01:25:46;11.27;;;7.73;;
31284;SDS011;56605;51.516;6.742;2023-04-03T01:28:18;12.93;;;8.20;;
31284;SDS011;56605;51.516;6.742;2023-04-03T01:30:47;13.60;;;7.50;;
31284;SDS011;56605;51.516;6.742;2023-04-03T01:33:32;10.73;;;7.33;;
31284;SDS011;56605;51.516;6.742;2023-04-03T01:35:58;16.43;;;7.90;;
31284;SDS011;56605;51.516;6.742;2023-04-03T01:38:23;11.97;;;6.77;;
31284;SDS011;56605;51.516;6.742;2023-04-03T01:40:49;11.10;;;6.70;;
31284;SDS011;56605;51.516;6.742;2023-04-03T01:43:15;11.37;;;7.00;;
31284;SDS011;56605;51.516;6.742;2023-04-03T01:45:40;9.13;;;6.83;;
31284;SDS011;56605;51.516;6.742;2023-04-03T01:48:05;13.20;;;7.10;;
31284;SDS011;56605;51.516;6.742;2023-04-03T01:50:31;15.20;;;6.23;;
31284;SDS011;56605;51.516;6.742;2023-04-03T01:52:56;9.20;;;6.03;;
31284;SDS011;56605;51.516;6.742;2023-04-03T01:55:21;9.57;;;5.27;;
31284;SDS011;56605;51.516;6.742;2023-04-03T01:57:47;8.47;;;4.80;;
31284;SDS011;56605;51.516;6.742;2023-04-03T02:00:12;10.17;;;5.23;;
31284;SDS011;56605;51.516;6.742;2023-04-03T02:02:38;10.77;;;5.53;;
31284;SDS011;56605;51.516;6.742;2023-04-03T02:05:03;10.50;;;5.27;;
31284;SDS011;56605;51.516;6.742;2023-04-03T02:07:29;9.53;;;5.13;;
31284;SDS011;56605;51.516;6.742;2023-04-03T02:09:55;10.80;;;4.60;;
31284;SDS011;56605;51.516;6.742;2023-04-03T02:12:20;12.23;;;5.10;;
31284;SDS011;56605;51.516;6.742;2023-04-03T02:14:45;7.93;;;4.70;;
31284;SDS011;56605;51.516;6.742;2023-04-03T02:17:11;7.43;;;4.53;;
31284;SDS011;56605;51.516;6.742;2023-04-03T02:19:36;10.37;;;4.57;;
31284;SDS011;56605;51.516;6.742;2023-04-03T02:22:02;7.17;;;4.70;;
31284;SDS011;56605;51.516;6.742;2023-04-03T02:24:28;10.33;;;4.97;;
31284;SDS011;56605;51.516;6.742;2023-04-03T02:26:54;10.03;;;4.17;;
31284;SDS011;56605;51.516;6.742;2023-04-03T02:29:19;7.90;;;4.47;;
31284;SDS011;56605;51.516;6.742;2023-04-03T02:31:45;8.20;;;4.47;;
31284;SDS011;56605;51.516;6.742;2023-04-03T02:34:10;9.30;;;4.23;;
31284;SDS011;56605;51.516;6.742;2023-04-03T02:36:36;8.13;;;4.60;;
31284;SDS011;56605;51.516;6.742;2023-04-03T02:39:01;7.47;;;4.53;;
31284;SDS011;56605;51.516;6.742;2023-04-03T02:41:27;8.17;;;4.80;;
31284;SDS011;56605;51.516;6.742;2023-04-03T02:43:58;9.03;;;4.03;;
31284;SDS011;56605;51.516;6.742;2023-04-03T02:46:24;7.97;;;5.07;;
31284;SDS011;56605;51.516;6.742;2023-04-03T02:48:55;11.03;;;4.30;;
31284;SDS011;56605;51.516;6.742;2023-04-03T02:51:20;8.83;;;4.60;;
31284;SDS011;56605;51.516;6.742;2023-04-03T02:53:46;9.47;;;4.67;;
31284;SDS011;56605;51.516;6.742;2023-04-03T02:56:11;12.93;;;4.60;;
31284;SDS011;56605;51.516;6.742;2023-04-03T02:58:36;8.30;;;3.53;;
31284;SDS011;56605;51.516;6.742;2023-04-03T03:01:02;7.27;;;4.13;;
31284;SDS011;56605;51.516;6.742;2023-04-03T03:03:28;10.67;;;3.90;;
31284;SDS011;56605;51.516;6.742;2023-04-03T03:08:51;6.47;;;3.33;;
31284;SDS011;56605;51.516;6.742;2023-04-03T03:11:17;10.97;;;3.50;;
31284;SDS011;56605;51.516;6.742;2023-04-03T03:13:43;6.70;;;3.30;;
31284;SDS011;56605;51.516;6.742;2023-04-03T03:16:08;8.03;;;3.23;;
31284;SDS011;56605;51.516;6.742;2023-04-03T03:18:33;5.13;;;3.20;;
31284;SDS011;56605;51.516;6.742;2023-04-03T03:20:59;12.40;;;3.53;;
31284;SDS011;56605;51.516;6.742;2023-04-03T03:23:26;10.17;;;3.40;;
31284;SDS011;56605;51.516;6.742;2023-04-03T03:25:56;6.37;;;2.83;;
31284;SDS011;56605;51.516;6.742;2023-04-03T03:28:29;6.50;;;2.80;;
31284;SDS011;56605;51.516;6.742;2023-04-03T03:31:03;5.37;;;2.63;;
31284;SDS011;56605;51.516;6.742;2023-04-03T03:33:29;6.37;;;3.10;;
31284;SDS011;56605;51.516;6.742;2023-04-03T03:35:59;6.10;;;2.47;;
31284;SDS011;56605;51.516;6.742;2023-04-03T03:38:27;4.77;;;2.33;;
31284;SDS011;56605;51.516;6.742;2023-04-03T03:40:54;5.20;;;2.10;;
31284;SDS011;56605;51.516;6.742;2023-04-03T03:43:20;6.23;;;2.00;;
31284;SDS011;56605;51.516;6.742;2023-04-03T03:45:51;7.17;;;2.37;;
31284;SDS011;56605;51.516;6.742;2023-04-03T03:48:18;8.23;;;2.27;;
31284;SDS011;56605;51.516;6.742;2023-04-03T03:50:46;4.77;;;1.80;;
31284;SDS011;56605;51.516;6.742;2023-04-03T03:53:13;4.23;;;2.40;;
31284;SDS011;56605;51.516;6.742;2023-04-03T03:55:40;6.93;;;2.33;;
31284;SDS011;56605;51.516;6.742;2023-04-03T04:01:09;5.07;;;2.13;;
31284;SDS011;56605;51.516;6.742;2023-04-03T04:03:36;4.17;;;1.90;;
31284;SDS011;56605;51.516;6.742;2023-04-03T04:06:03;3.30;;;1.83;;
31284;SDS011;56605;51.516;6.742;2023-04-03T04:08:31;5.40;;;2.10;;
31284;SDS011;56605;51.516;6.742;2023-04-03T04:10:56;8.37;;;2.10;;
31284;SDS011;56605;51.516;6.742;2023-04-03T04:13:21;3.63;;;1.80;;
31284;SDS011;56605;51.516;6.742;2023-04-03T04:15:46;2.90;;;1.50;;
31284;SDS011;56605;51.516;6.742;2023-04-03T04:18:13;5.37;;;1.90;;
31284;SDS011;56605;51.516;6.742;2023-04-03T04:20:38;7.77;;;1.87;;
31284;SDS011;56605;51.516;6.742;2023-04-03T04:23:03;6.17;;;1.93;;
31284;SDS011;56605;51.516;6.742;2023-04-03T04:25:29;10.97;;;2.13;;
31284;SDS011;56605;51.516;6.742;2023-04-03T04:27:54;5.93;;;1.50;;
31284;SDS011;56605;51.516;6.742;2023-04-03T04:30:20;4.97;;;2.00;;
31284;SDS011;56605;51.516;6.742;2023-04-03T04:32:45;4.93;;;2.03;;
31284;SDS011;56605;51.516;6.742;2023-04-03T04:35:10;6.33;;;2.20;;
31284;SDS011;56605;51.516;6.742;2023-04-03T04:37:36;5.17;;;2.00;;
31284;SDS011;56605;51.516;6.742;2023-04-03T04:40:01;7.67;;;2.10;;
31284;SDS011;56605;51.516;6.742;2023-04-03T04:42:27;7.50;;;3.30;;
31284;SDS011;56605;51.516;6.742;2023-04-03T04:44:52;5.10;;;1.60;;
31284;SDS011;56605;51.516;6.742;2023-04-03T04:47:17;6.73;;;2.00;;
31284;SDS011;56605;51.516;6.742;2023-04-03T04:49:43;4.80;;;1.73;;
31284;SDS011;56605;51.516;6.742;2023-04-03T04:52:08;6.17;;;2.03;;
31284;SDS011;56605;51.516;6.742;2023-04-03T04:54:33;6.60;;;1.40;;
31284;SDS011;56605;51.516;6.742;2023-04-03T04:56:59;8.83;;;2.90;;
31284;SDS011;56605;51.516;6.742;2023-04-03T04:59:24;6.17;;;2.37;;
31284;SDS011;56605;51.516;6.742;2023-04-03T05:01:50;5.07;;;1.93;;
31284;SDS011;56605;51.516;6.742;2023-04-03T05:04:15;6.93;;;2.00;;
31284;SDS011;56605;51.516;6.742;2023-04-03T05:06:40;3.40;;;1.90;;
31284;SDS011;56605;51.516;6.742;2023-04-03T05:09:06;4.87;;;1.93;;
31284;SDS011;56605;51.516;6.742;2023-04-03T05:11:31;8.60;;;2.03;;
31284;SDS011;56605;51.516;6.742;2023-04-03T05:13:57;5.67;;;2.23;;
31284;SDS011;56605;51.516;6.742;2023-04-03T05:16:22;12.33;;;3.00;;
31284;SDS011;56605;51.516;6.742;2023-04-03T05:18:47;7.77;;;2.60;;
31284;SDS011;56605;51.516;6.742;2023-04-03T05:21:13;4.40;;;2.00;;
31284;SDS011;56605;51.516;6.742;2023-04-03T05:23:38;7.67;;;3.20;;
31284;SDS011;56605;51.516;6.742;2023-04-03T05:26:03;7.20;;;1.80;;
31284;SDS011;56605;51.516;6.742;2023-04-03T05:28:29;6.10;;;2.20;;
31284;SDS011;56605;51.516;6.742;2023-04-03T05:30:58;9.23;;;2.30;;
31284;SDS011;56605;51.516;6.742;2023-04-03T05:33:24;5.83;;;2.00;;
31284;SDS011;56605;51.516;6.742;2023-04-03T05:35:51;8.50;;;2.10;;
31284;SDS011;56605;51.516;6.742;2023-04-03T05:38:16;6.67;;;2.43;;
31284;SDS011;56605;51.516;6.742;2023-04-03T05:40:42;7.60;;;1.90;;
31284;SDS011;56605;51.516;6.742;2023-04-03T05:43:07;5.97;;;1.67;;
31284;SDS011;56605;51.516;6.742;2023-04-03T05:45:32;8.47;;;2.30;;
31284;SDS011;56605;51.516;6.742;2023-04-03T05:47:58;7.63;;;2.50;;
31284;SDS011;56605;51.516;6.742;2023-04-03T05:50:23;7.93;;;2.53;;
31284;SDS011;56605;51.516;6.742;2023-04-03T05:52:49;4.80;;;1.77;;
31284;SDS011;56605;51.516;6.742;2023-04-03T05:55:20;5.97;;;2.07;;
31284;SDS011;56605;51.516;6.742;2023-04-03T05:57:45;5.50;;;2.50;;
31284;SDS011;56605;51.516;6.742;2023-04-03T06:00:12;4.17;;;2.07;;
31284;SDS011;56605;51.516;6.742;2023-04-03T06:02:40;9.63;;;2.20;;
31284;SDS011;56605;51.516;6.742;2023-04-03T06:05:07;4.60;;;1.73;;
31284;SDS011;56605;51.516;6.742;2023-04-03T06:07:33;6.63;;;2.13;;
31284;SDS011;56605;51.516;6.742;2023-04-03T06:09:59;5.17;;;2.23;;
31284;SDS011;56605;51.516;6.742;2023-04-03T06:12:25;4.30;;;1.70;;
31284;SDS011;56605;51.516;6.742;2023-04-03T06:14:50;6.43;;;2.13;;
31284;SDS011;56605;51.516;6.742;2023-04-03T06:17:16;8.20;;;2.83;;
31284;SDS011;56605;51.516;6.742;2023-04-03T06:19:43;8.47;;;2.20;;
31284;SDS011;56605;51.516;6.742;2023-04-03T06:22:08;6.93;;;2.40;;
31284;SDS011;56605;51.516;6.742;2023-04-03T06:24:34;11.83;;;2.53;;
31284;SDS011;56605;51.516;6.742;2023-04-03T06:27:00;3.83;;;1.80;;
31284;SDS011;56605;51.516;6.742;2023-04-03T06:29:25;4.73;;;2.20;;
31284;SDS011;56605;51.516;6.742;2023-04-03T06:31:51;6.00;;;1.90;;
31284;SDS011;56605;51.516;6.742;2023-04-03T06:34:17;7.23;;;2.27;;
31284;SDS011;56605;51.516;6.742;2023-04-03T06:36:43;4.83;;;1.60;;
31284;SDS011;56605;51.516;6.742;2023-04-03T06:39:13;4.93;;;2.00;;
31284;SDS011;56605;51.516;6.742;2023-04-03T06:41:41;10.20;;;2.00;;
31284;SDS011;56605;51.516;6.742;2023-04-03T06:44:07;7.70;;;2.10;;
31284;SDS011;56605;51.516;6.742;2023-04-03T06:46:35;6.40;;;2.03;;
31284;SDS011;56605;51.516;6.742;2023-04-03T06:49:02;9.30;;;2.20;;
31284;SDS011;56605;51.516;6.742;2023-04-03T06:51:28;5.37;;;2.13;;
31284;SDS011;56605;51.516;6.742;2023-04-03T06:53:55;4.67;;;1.70;;
31284;SDS011;56605;51.516;6.742;2023-04-03T06:56:22;5.57;;;2.10;;
31284;SDS011;56605;51.516;6.742;2023-04-03T06:58:48;4.30;;;1.60;;
31284;SDS011;56605;51.516;6.742;2023-04-03T07:01:15;9.93;;;2.40;;
31284;SDS011;56605;51.516;6.742;2023-04-03T07:03:42;7.47;;;1.63;;
31284;SDS011;56605;51.516;6.742;2023-04-03T07:06:09;9.97;;;2.10;;
31284;SDS011;56605;51.516;6.742;2023-04-03T07:08:36;9.63;;;2.20;;
31284;SDS011;56605;51.516;6.742;2023-04-03T07:11:02;6.43;;;1.90;;
31284;SDS011;56605;51.516;6.742;2023-04-03T07:13:28;7.77;;;2.27;;
31284;SDS011;56605;51.516;6.742;2023-04-03T07:15:53;4.23;;;1.63;;
31284;SDS011;56605;51.516;6.742;2023-04-03T07:18:19;8.13;;;2.10;;
31284;SDS011;56605;51.516;6.742;2023-04-03T07:20:45;4.87;;;1.80;;
31284;SDS011;56605;51.516;6.742;2023-04-03T07:23:10;5.20;;;1.77;;
31284;SDS011;56605;51.516;6.742;2023-04-03T07:25:36;4.07;;;1.73;;
31284;SDS011;56605;51.516;6.742;2023-04-03T07:28:02;6.70;;;1.70;;
31284;SDS011;56605;51.516;6.742;2023-04-03T07:30:28;3.03;;;1.30;;
31284;SDS011;56605;51.516;6.742;2023-04-03T07:32:53;5.90;;;1.80;;
31284;SDS011;56605;51.516;6.742;2023-04-03T07:35:19;4.60;;;1.23;;
31284;SDS011;56605;51.516;6.742;2023-04-03T07:37:44;4.77;;;1.43;;
31284;SDS011;56605;51.516;6.742;2023-04-03T07:40:10;6.90;;;1.80;;
31284;SDS011;56605;51.516;6.742;2023-04-03T07:42:35;4.65;;;1.17;;
31284;SDS011;56605;51.516;6.742;2023-04-03T07:45:02;6.43;;;1.77;;
31284;SDS011;56605;51.516;6.742;2023-04-03T07:47:28;4.20;;;1.58;;
31284;SDS011;56605;51.516;6.742;2023-04-03T07:49:54;7.67;;;1.70;;
31284;SDS011;56605;51.516;6.742;2023-04-03T07:52:19;3.23;;;1.33;;
31284;SDS011;56605;51.516;6.742;2023-04-03T07:54:45;7.30;;;1.97;;
31284;SDS011;56605;51.516;6.742;2023-04-03T07:57:10;4.80;;;1.58;;
31284;SDS011;56605;51.516;6.742;2023-04-03T07:59:36;10.47;;;1.43;;
31284;SDS011;56605;51.516;6.742;2023-04-03T08:02:02;3.67;;;1.27;;
31284;SDS011;56605;51.516;6.742;2023-04-03T08:04:30;7.13;;;1.40;;
31284;SDS011;56605;51.516;6.742;2023-04-03T08:06:55;3.53;;;1.53;;
31284;SDS011;56605;51.516;6.742;2023-04-03T08:09:21;2.93;;;1.37;;
31284;SDS011;56605;51.516;6.742;2023-04-03T08:11:47;4.90;;;1.47;;
31284;SDS011;56605;51.516;6.742;2023-04-03T08:14:12;4.70;;;1.50;;
31284;SDS011;56605;51.516;6.742;2023-04-03T08:16:42;2.92;;;1.10;;
31284;SDS011;56605;51.516;6.742;2023-04-03T08:19:08;4.55;;;1.42;;
31284;SDS011;56605;51.516;6.742;2023-04-03T08:21:35;5.43;;;1.70;;
31284;SDS011;56605;51.516;6.742;2023-04-03T08:24:01;1.90;;;1.05;;
31284;SDS011;56605;51.516;6.742;2023-04-03T08:26:26;3.75;;;1.27;;
31284;SDS011;56605;51.516;6.742;2023-04-03T08:28:52;5.35;;;1.20;;
31284;SDS011;56605;51.516;6.742;2023-04-03T08:31:18;2.92;;;0.80;;
31284;SDS011;56605;51.516;6.742;2023-04-03T08:33:44;2.55;;;1.25;;
31284;SDS011;56605;51.516;6.742;2023-04-03T08:36:24;5.25;;;1.33;;
31284;SDS011;56605;51.516;6.742;2023-04-03T08:38:51;3.55;;;1.48;;
31284;SDS011;56605;51.516;6.742;2023-04-03T08:44:09;3.75;;;1.30;;
31284;SDS011;56605;51.516;6.742;2023-04-03T08:46:52;5.47;;;1.77;;
31284;SDS011;56605;51.516;6.742;2023-04-03T08:49:40;3.75;;;1.35;;
31284;SDS011;56605;51.516;6.742;2023-04-03T08:55:38;4.88;;;1.15;;
31284;SDS011;56605;51.516;6.742;2023-04-03T09:00:50;3.17;;;1.05;;
31284;SDS011;56605;51.516;6.742;2023-04-03T09:03:17;4.60;;;1.20;;
31284;SDS011;56605;51.516;6.742;2023-04-03T09:05:47;2.33;;;1.17;;
31284;SDS011;56605;51.516;6.742;2023-04-03T09:10:45;3.97;;;1.50;;
31284;SDS011;56605;51.516;6.742;2023-04-03T09:13:13;2.60;;;0.93;;
31284;SDS011;56605;51.516;6.742;2023-04-03T09:15:43;5.43;;;1.20;;
31284;SDS011;56605;51.516;6.742;2023-04-03T09:26:17;3.17;;;0.70;;
31284;SDS011;56605;51.516;6.742;2023-04-03T09:28:49;3.70;;;1.00;;
31284;SDS011;56605;51.516;6.742;2023-04-03T09:31:21;5.72;;;1.40;;
31284;SDS011;56605;51.516;6.742;2023-04-03T09:33:50;1.40;;;0.70;;
31284;SDS011;56605;51.516;6.742;2023-04-03T09:39:07;3.55;;;0.90;;
31284;SDS011;56605;51.516;6.742;2023-04-03T09:41:36;3.33;;;1.23;;
31284;SDS011;56605;51.516;6.742;2023-04-03T09:44:02;6.38;;;1.70;;
31284;SDS011;56605;51.516;6.742;2023-04-03T09:46:31;2.55;;;0.88;;
31284;SDS011;56605;51.516;6.742;2023-04-03T09:48:59;4.45;;;1.08;;
31284;SDS011;56605;51.516;6.742;2023-04-03T09:51:27;3.22;;;1.30;;
31284;SDS011;56605;51.516;6.742;2023-04-03T09:53:53;3.40;;;1.20;;
31284;SDS011;56605;51.516;6.742;2023-04-03T09:56:24;2.22;;;1.23;;
31284;SDS011;56605;51.516;6.742;2023-04-03T10:01:38;2.65;;;1.35;;
31284;SDS011;56605;51.516;6.742;2023-04-03T10:06:35;1.95;;;0.80;;
31284;SDS011;56605;51.516;6.742;2023-04-03T10:09:27;2.05;;;0.52;;
31284;SDS011;56605;51.516;6.742;2023-04-03T10:12:04;1.67;;;0.60;;
31284;SDS011;56605;51.516;6.742;2023-04-03T10:14:31;3.45;;;0.70;;
31284;SDS011;56605;51.516;6.742;2023-04-03T10:17:03;1.83;;;1.00;;
31284;SDS011;56605;51.516;6.742;2023-04-03T10:19:43;2.55;;;0.85;;
31284;SDS011;56605;51.516;6.742;2023-04-03T10:24:47;4.25;;;0.77;;
31284;SDS011;56605;51.516;6.742;2023-04-03T10:27:22;1.50;;;0.57;;
31284;SDS011;56605;51.516;6.742;2023-04-03T10:46:32;4.00;;;0.70;;
31284;SDS011;56605;51.516;6.742;2023-04-03T10:49:05;2.42;;;0.90;;
31284;SDS011;56605;51.516;6.742;2023-04-03T10:52:01;4.53;;;1.27;;
31284;SDS011;56605;51.516;6.742;2023-04-03T10:54:38;1.33;;;0.70;;
31284;SDS011;56605;51.516;6.742;2023-04-03T10:57:10;2.53;;;0.85;;
31284;SDS011;56605;51.516;6.742;2023-04-03T10:59:37;4.18;;;0.70;;
31284;SDS011;56605;51.516;6.742;2023-04-03T11:02:11;2.00;;;0.80;;
31284;SDS011;56605;51.516;6.742;2023-04-03T11:04:50;3.28;;;0.90;;
31284;SDS011;56605;51.516;6.742;2023-04-03T11:07:20;4.43;;;0.95;;
31284;SDS011;56605;51.516;6.742;2023-04-03T11:09:49;2.70;;;0.80;;
31284;SDS011;56605;51.516;6.742;2023-04-03T11:12:21;2.10;;;0.68;;
31284;SDS011;56605;51.516;6.742;2023-04-03T11:14:51;3.20;;;1.00;;
31284;SDS011;56605;51.516;6.742;2023-04-03T11:22:32;5.90;;;1.00;;
31284;SDS011;56605;51.516;6.742;2023-04-03T11:25:04;2.88;;;0.90;;
31284;SDS011;56605;51.516;6.742;2023-04-03T11:27:33;2.33;;;0.80;;
31284;SDS011;56605;51.516;6.742;2023-04-03T11:30:05;4.28;;;0.90;;
31284;SDS011;56605;51.516;6.742;2023-04-03T11:35:30;2.97;;;1.08;;
31284;SDS011;56605;51.516;6.742;2023-04-03T11:37:56;2.78;;;1.38;;
31284;SDS011;56605;51.516;6.742;2023-04-03T11:40:28;4.30;;;1.33;;
31284;SDS011;56605;51.516;6.742;2023-04-03T11:43:05;4.05;;;1.20;;
31284;SDS011;56605;51.516;6.742;2023-04-03T11:46:01;3.92;;;1.10;;
31284;SDS011;56605;51.516;6.742;2023-04-03T11:50:57;4.43;;;1.00;;
31284;SDS011;56605;51.516;6.742;2023-04-03T11:53:30;2.47;;;1.20;;
31284;SDS011;56605;51.516;6.742;2023-04-03T11:56:00;4.47;;;1.08;;
31284;SDS011;56605;51.516;6.742;2023-04-03T12:01:45;2.90;;;0.88;;
31284;SDS011;56605;51.516;6.742;2023-04-03T12:04:16;2.78;;;1.05;;
31284;SDS011;56605;51.516;6.742;2023-04-03T12:06:49;2.95;;;1.00;;
31284;SDS011;56605;51.516;6.742;2023-04-03T12:12:24;4.18;;;1.00;;
31284;SDS011;56605;51.516;6.742;2023-04-03T12:14:51;4.55;;;0.90;;
31284;SDS011;56605;51.516;6.742;2023-04-03T12:17:25;1.95;;;1.15;;
31284;SDS011;56605;51.516;6.742;2023-04-03T12:19:58;2.22;;;1.17;;
31284;SDS011;56605;51.516;6.742;2023-04-03T12:22:30;1.95;;;0.90;;
31284;SDS011;56605;51.516;6.742;2023-04-03T12:24:55;1.90;;;1.13;;
31284;SDS011;56605;51.516;6.742;2023-04-03T12:46:04;2.10;;;1.00;;
31284;SDS011;56605;51.516;6.742;2023-04-03T12:48:50;2.25;;;1.17;;
31284;SDS011;56605;51.516;6.742;2023-04-03T12:51:21;2.63;;;1.10;;
31284;SDS011;56605;51.516;6.742;2023-04-03T12:53:51;3.28;;;1.15;;
31284;SDS011;56605;51.516;6.742;2023-04-03T12:56:24;2.80;;;1.67;;
31284;SDS011;56605;51.516;6.742;2023-04-03T12:58:55;3.05;;;0.82;;
31284;SDS011;56605;51.516;6.742;2023-04-03T13:01:37;2.65;;;0.73;;
31284;SDS011;56605;51.516;6.742;2023-04-03T13:04:02;3.42;;;1.40;;
31284;SDS011;56605;51.516;6.742;2023-04-03T13:06:50;2.72;;;1.00;;
31284;SDS011;56605;51.516;6.742;2023-04-03T13:09:22;2.17;;;1.10;;
31284;SDS011;56605;51.516;6.742;2023-04-03T13:11:57;2.83;;;0.98;;
31284;SDS011;56605;51.516;6.742;2023-04-03T13:14:26;1.70;;;0.70;;
31284;SDS011;56605;51.516;6.742;2023-04-03T13:17:03;5.35;;;1.40;;
31284;SDS011;56605;51.516;6.742;2023-04-03T13:19:36;5.13;;;3.28;;
31284;SDS011;56605;51.516;6.742;2023-04-03T13:22:05;3.10;;;2.00;;
31284;SDS011;56605;51.516;6.742;2023-04-03T13:24:52;5.93;;;3.55;;
31284;SDS011;56605;51.516;6.742;2023-04-03T13:27:19;2.70;;;1.23;;
31284;SDS011;56605;51.516;6.742;2023-04-03T13:29:49;5.35;;;1.67;;
31284;SDS011;56605;51.516;6.742;2023-04-03T13:32:18;2.17;;;1.00;;
31284;SDS011;56605;51.516;6.742;2023-04-03T13:34:46;5.45;;;1.25;;
31284;SDS011;56605;51.516;6.742;2023-04-03T13:37:23;3.60;;;1.25;;
31284;SDS011;56605;51.516;6.742;2023-04-03T13:40:03;4.50;;;1.50;;
31284;SDS011;56605;51.516;6.742;2023-04-03T13:42:37;1.77;;;1.25;;
31284;SDS011;56605;51.516;6.742;2023-04-03T13:47:54;2.50;;;0.90;;
31284;SDS011;56605;51.516;6.742;2023-04-03T13:53:16;3.20;;;1.33;;
31284;SDS011;56605;51.516;6.742;2023-04-03T13:58:29;6.47;;;3.67;;
31284;SDS011;56605;51.516;6.742;2023-04-03T14:01:07;4.10;;;1.20;;
31284;SDS011;56605;51.516;6.742;2023-04-03T14:03:53;2.25;;;1.05;;
31284;SDS011;56605;51.516;6.742;2023-04-03T14:06:23;3.28;;;1.10;;
31284;SDS011;56605;51.516;6.742;2023-04-03T14:08:51;2.80;;;1.10;;
31284;SDS011;56605;51.516;6.742;2023-04-03T14:11:25;2.88;;;1.30;;
31284;SDS011;56605;51.516;6.742;2023-04-03T14:13:54;4.00;;;1.30;;
31284;SDS011;56605;51.516;6.742;2023-04-03T14:16:23;3.65;;;1.27;;
31284;SDS011;56605;51.516;6.742;2023-04-03T14:18:52;3.53;;;1.10;;
31284;SDS011;56605;51.516;6.742;2023-04-03T14:21:18;3.20;;;1.33;;
31284;SDS011;56605;51.516;6.742;2023-04-03T14:23:44;3.80;;;1.10;;
31284;SDS011;56605;51.516;6.742;2023-04-03T14:26:12;7.15;;;1.60;;
31284;SDS011;56605;51.516;6.742;2023-04-03T14:28:41;3.30;;;1.20;;
31284;SDS011;56605;51.516;6.742;2023-04-03T14:31:07;2.85;;;1.00;;
31284;SDS011;56605;51.516;6.742;2023-04-03T14:33:32;1.67;;;0.80;;
31284;SDS011;56605;51.516;6.742;2023-04-03T14:36:00;3.05;;;0.88;;
31284;SDS011;56605;51.516;6.742;2023-04-03T14:38:29;2.42;;;0.98;;
31284;SDS011;56605;51.516;6.742;2023-04-03T14:40:56;4.13;;;1.10;;
31284;SDS011;56605;51.516;6.742;2023-04-03T14:43:21;2.42;;;1.00;;
31284;SDS011;56605;51.516;6.742;2023-04-03T14:45:51;4.70;;;0.98;;
31284;SDS011;56605;51.516;6.742;2023-04-03T14:48:21;2.70;;;1.02;;
31284;SDS011;56605;51.516;6.742;2023-04-03T14:50:48;2.08;;;1.00;;
31284;SDS011;56605;51.516;6.742;2023-04-03T14:53:15;2.35;;;1.10;;
31284;SDS011;56605;51.516;6.742;2023-04-03T14:55:43;5.13;;;1.38;;
31284;SDS011;56605;51.516;6.742;2023-04-03T14:58:17;3.53;;;1.23;;
31284;SDS011;56605;51.516;6.742;2023-04-03T15:00:44;2.47;;;0.73;;
31284;SDS011;56605;51.516;6.742;2023-04-03T15:03:15;3.10;;;1.40;;
31284;SDS011;56605;51.516;6.742;2023-04-03T15:05:45;4.47;;;1.10;;
31284;SDS011;56605;51.516;6.742;2023-04-03T15:08:21;2.80;;;1.20;;
31284;SDS011;56605;51.516;6.742;2023-04-03T15:10:49;6.88;;;1.20;;
31284;SDS011;56605;51.516;6.742;2023-04-03T15:13:17;2.20;;;1.20;;
31284;SDS011;56605;51.516;6.742;2023-04-03T15:15:44;2.55;;;0.93;;
31284;SDS011;56605;51.516;6.742;2023-04-03T15:18:20;6.18;;;1.35;;
31284;SDS011;56605;51.516;6.742;2023-04-03T15:20:48;8.68;;;1.50;;
31284;SDS011;56605;51.516;6.742;2023-04-03T15:23:15;2.45;;;0.90;;
31284;SDS011;56605;51.516;6.742;2023-04-03T15:25:44;3.53;;;0.88;;
31284;SDS011;56605;51.516;6.742;2023-04-03T15:28:16;2.28;;;0.85;;
31284;SDS011;56605;51.516;6.742;2023-04-03T15:30:57;4.32;;;1.15;;
31284;SDS011;56605;51.516;6.742;2023-04-03T15:33:22;1.65;;;1.13;;
31284;SDS011;56605;51.516;6.742;2023-04-03T15:35:48;4.93;;;1.38;;
31284;SDS011;56605;51.516;6.742;2023-04-03T15:38:13;5.40;;;1.10;;
31284;SDS011;56605;51.516;6.742;2023-04-03T15:40:39;3.70;;;1.30;;
31284;SDS011;56605;51.516;6.742;2023-04-03T15:43:05;4.47;;;1.40;;
31284;SDS011;56605;51.516;6.742;2023-04-03T15:45:31;2.53;;;1.00;;
31284;SDS011;56605;51.516;6.742;2023-04-03T15:47:58;5.97;;;1.20;;
31284;SDS011;56605;51.516;6.742;2023-04-03T15:50:23;2.20;;;1.17;;
31284;SDS011;56605;51.516;6.742;2023-04-03T15:52:50;7.60;;;1.38;;
31284;SDS011;56605;51.516;6.742;2023-04-03T15:55:20;4.25;;;1.58;;
31284;SDS011;56605;51.516;6.742;2023-04-03T15:57:46;3.15;;;1.25;;
31284;SDS011;56605;51.516;6.742;2023-04-03T16:00:12;5.78;;;0.88;;
31284;SDS011;56605;51.516;6.742;2023-04-03T16:02:37;6.75;;;1.40;;
31284;SDS011;56605;51.516;6.742;2023-04-03T16:05:03;3.08;;;1.17;;
31284;SDS011;56605;51.516;6.742;2023-04-03T16:07:29;2.95;;;1.27;;
31284;SDS011;56605;51.516;6.742;2023-04-03T16:09:54;7.50;;;1.63;;
31284;SDS011;56605;51.516;6.742;2023-04-03T16:12:20;5.93;;;1.13;;
31284;SDS011;56605;51.516;6.742;2023-04-03T16:14:45;8.40;;;1.90;;
31284;SDS011;56605;51.516;6.742;2023-04-03T16:17:10;3.45;;;1.17;;
31284;SDS011;56605;51.516;6.742;2023-04-03T16:19:36;5.05;;;1.30;;
31284;SDS011;56605;51.516;6.742;2023-04-03T16:22:02;6.32;;;1.60;;
31284;SDS011;56605;51.516;6.742;2023-04-03T16:24:27;4.57;;;1.20;;
31284;SDS011;56605;51.516;6.742;2023-04-03T16:26:52;3.42;;;1.13;;
31284;SDS011;56605;51.516;6.742;2023-04-03T16:29:18;1.95;;;0.90;;
31284;SDS011;56605;51.516;6.742;2023-04-03T16:31:43;3.50;;;1.35;;
31284;SDS011;56605;51.516;6.742;2023-04-03T16:34:08;2.13;;;0.93;;
31284;SDS011;56605;51.516;6.742;2023-04-03T16:36:34;2.55;;;0.95;;
31284;SDS011;56605;51.516;6.742;2023-04-03T16:39:00;4.03;;;1.33;;